createdAt,value
2023-09-29T00:00:18.520Z,82.54
2023-09-29T00:02:46.866Z,84.46
2023-09-29T00:05:15.464Z,85.51
2023-09-29T00:07:44.020Z,83.56
2023-09-29T00:10:14.528Z,82.51
2023-09-29T00:12:43.176Z,84.09
2023-09-29T00:15:10.370Z,84.28
2023-09-29T00:17:37.557Z,84.46
2023-09-29T00:20:21.103Z,84.50
2023-09-29T00:22:48.227Z,84.91
2023-09-29T00:25:15.253Z,85.37
2023-09-29T00:27:41.787Z,85.31
2023-09-29T00:30:11.376Z,85.89
2023-09-29T00:32:38.280Z,86.06
2023-09-29T00:35:06.125Z,85.79
2023-09-29T00:37:32.782Z,85.70
2023-09-29T00:39:59.547Z,84.62
2023-09-29T00:42:26.456Z,83.92
2023-09-29T00:44:53.038Z,84.17
2023-09-29T00:47:21.412Z,84.29
2023-09-29T00:49:50.048Z,85.15
2023-09-29T00:52:18.393Z,86.93
2023-09-29T00:54:47.388Z,87.27
2023-09-29T00:57:14.990Z,87.11
2023-09-29T00:59:42.648Z,86.56
2023-09-29T01:02:11.866Z,86.27
2023-09-29T01:04:40.136Z,86.19
2023-09-29T01:07:08.418Z,85.63
2023-09-29T01:09:35.231Z,85.16
2023-09-29T01:12:01.891Z,85.18
2023-09-29T01:14:28.709Z,85.36
2023-09-29T01:16:55.528Z,85.72
2023-09-29T01:19:22.269Z,85.91
2023-09-29T01:21:49.136Z,85.60
2023-09-29T01:24:15.957Z,85.19
2023-09-29T01:26:46.093Z,86.09
2023-09-29T01:29:12.954Z,86.89
2023-09-29T01:31:40.434Z,87.58
2023-09-29T01:34:07.277Z,88.25
2023-09-29T01:36:34.420Z,87.48
2023-09-29T01:39:01.344Z,87.54
2023-09-29T01:41:28.540Z,87.65
2023-09-29T01:43:55.256Z,87.44
2023-09-29T01:46:21.972Z,86.96
2023-09-29T01:48:48.815Z,87.18
2023-09-29T01:51:15.424Z,87.84
2023-09-29T01:53:42.122Z,88.00
2023-09-29T01:56:09.192Z,88.37
2023-09-29T01:58:36.613Z,88.90
2023-09-29T02:01:03.292Z,89.31
2023-09-29T02:03:31.496Z,89.27
2023-09-29T02:05:58.967Z,89.07
2023-09-29T02:08:26.962Z,88.90
2023-09-29T02:10:54.028Z,88.62
2023-09-29T02:13:21.034Z,88.05
2023-09-29T02:15:47.725Z,86.65
2023-09-29T02:18:14.825Z,86.64
2023-09-29T02:20:48.273Z,86.81
2023-09-29T02:23:15.902Z,87.61
2023-09-29T02:25:43.455Z,87.09
2023-09-29T02:28:11.197Z,86.82
2023-09-29T02:30:38.145Z,86.82
2023-09-29T02:33:04.896Z,86.90
2023-09-29T02:35:32.202Z,86.75
2023-09-29T02:37:59.254Z,86.63
2023-09-29T02:40:25.960Z,85.45
2023-09-29T02:42:52.829Z,84.24
2023-09-29T02:45:19.528Z,83.92
2023-09-29T02:47:48.318Z,83.72
2023-09-29T02:50:15.696Z,82.82
2023-09-29T02:52:43.546Z,83.01
2023-09-29T02:55:14.367Z,82.47
2023-09-29T02:57:43.059Z,82.40
2023-09-29T03:00:19.823Z,82.38
2023-09-29T03:02:46.855Z,83.04
2023-09-29T03:05:17.003Z,83.39
2023-09-29T03:07:44.529Z,83.79
2023-09-29T03:10:17.766Z,84.87
2023-09-29T03:12:46.137Z,83.42
2023-09-29T03:15:16.951Z,82.65
2023-09-29T03:17:45.822Z,84.66
2023-09-29T03:20:13.253Z,85.23
2023-09-29T03:22:41.574Z,86.17
2023-09-29T03:25:10.960Z,86.71
2023-09-29T03:27:38.237Z,86.44
2023-09-29T03:30:09.800Z,86.12
2023-09-29T03:32:36.737Z,86.20
2023-09-29T03:35:06.020Z,86.38
2023-09-29T03:37:40.801Z,86.44
2023-09-29T03:40:09.933Z,86.87
2023-09-29T03:42:37.893Z,87.35
2023-09-29T03:45:07.103Z,87.63
2023-09-29T03:47:35.515Z,88.40
2023-09-29T03:50:03.175Z,89.09
2023-09-29T03:52:33.459Z,89.10
2023-09-29T03:55:00.411Z,88.86
2023-09-29T03:57:27.152Z,89.36
2023-09-29T03:59:53.899Z,89.55
2023-09-29T04:02:21.816Z,88.72
2023-09-29T04:04:48.808Z,89.00
2023-09-29T04:07:16.783Z,88.58
2023-09-29T04:09:43.533Z,88.59
2023-09-29T04:12:10.334Z,88.84
2023-09-29T04:14:37.046Z,89.54
2023-09-29T04:17:05.901Z,89.58
2023-09-29T04:19:33.610Z,89.97
2023-09-29T04:22:01.228Z,90.07
2023-09-29T04:24:28.444Z,89.41
2023-09-29T04:26:55.193Z,90.13
2023-09-29T04:29:22.090Z,90.03
2023-09-29T04:31:48.842Z,90.44
2023-09-29T04:34:15.491Z,91.28
2023-09-29T04:36:43.738Z,91.56
2023-09-29T04:39:10.769Z,91.00
2023-09-29T04:41:38.903Z,90.29
2023-09-29T04:44:06.897Z,89.92
2023-09-29T04:46:35.408Z,90.10
2023-09-29T04:49:05.129Z,89.50
2023-09-29T04:51:35.131Z,89.29
2023-09-29T04:54:01.872Z,89.23
2023-09-29T04:56:28.601Z,90.15
2023-09-29T04:58:55.650Z,90.08
2023-09-29T05:01:24.956Z,90.59
2023-09-29T05:03:54.645Z,90.67
2023-09-29T05:06:25.226Z,90.40
2023-09-29T05:08:52.672Z,89.46
2023-09-29T05:11:23.961Z,89.10
2023-09-29T05:13:51.874Z,88.68
2023-09-29T05:16:18.953Z,89.34
2023-09-29T05:18:46.380Z,89.31
2023-09-29T05:21:13.190Z,89.56
2023-09-29T05:23:40.082Z,89.89
2023-09-29T05:26:08.932Z,89.97
2023-09-29T05:28:36.437Z,89.57
2023-09-29T05:31:05.015Z,89.51
2023-09-29T05:33:32.648Z,89.03
2023-09-29T05:36:00.257Z,88.91
2023-09-29T05:38:27.099Z,88.97
2023-09-29T05:40:53.806Z,89.05
2023-09-29T05:43:20.960Z,89.07
2023-09-29T05:45:48.721Z,88.59
2023-09-29T05:48:16.439Z,88.43
2023-09-29T05:50:43.678Z,89.07
2023-09-29T05:53:11.418Z,89.66
2023-09-29T05:55:39.553Z,90.27
2023-09-29T05:58:06.515Z,90.92
2023-09-29T06:00:33.280Z,90.81
2023-09-29T06:03:03.428Z,90.75
2023-09-29T06:05:30.706Z,89.38
2023-09-29T06:07:58.884Z,89.03
2023-09-29T06:10:26.410Z,89.41
2023-09-29T06:12:53.196Z,88.77
2023-09-29T06:15:20.486Z,88.56
2023-09-29T06:17:47.462Z,87.93
2023-09-29T06:20:14.293Z,86.96
2023-09-29T06:22:41.082Z,88.13
2023-09-29T06:25:08.025Z,88.25
2023-09-29T06:27:34.567Z,88.00
2023-09-29T06:30:01.343Z,87.81
2023-09-29T06:32:28.142Z,87.46
2023-09-29T06:34:54.948Z,86.89
2023-09-29T06:37:21.775Z,86.43
2023-09-29T06:39:48.456Z,87.02
2023-09-29T06:42:15.218Z,86.54
2023-09-29T06:44:42.140Z,85.78
2023-09-29T06:47:08.883Z,84.51
2023-09-29T06:49:35.615Z,84.00
2023-09-29T06:52:02.324Z,82.33
2023-09-29T06:54:29.210Z,82.00
2023-09-29T06:56:55.889Z,81.41
2023-09-29T06:59:22.652Z,80.91
2023-09-29T07:01:49.472Z,80.54
2023-09-29T07:04:16.323Z,80.85
2023-09-29T07:06:43.345Z,79.59
2023-09-29T07:09:11.125Z,79.51
2023-09-29T07:11:41.357Z,77.25
2023-09-29T07:14:08.141Z,74.36
2023-09-29T07:16:34.850Z,69.34
2023-09-29T07:19:01.566Z,64.83
2023-09-29T07:21:28.277Z,60.85
2023-09-29T07:23:55.101Z,57.38
2023-09-29T07:26:21.944Z,54.18
2023-09-29T07:28:49.210Z,51.60
2023-09-29T07:31:15.905Z,49.88
2023-09-29T07:33:42.728Z,48.76
2023-09-29T07:36:09.459Z,48.28
2023-09-29T07:38:36.231Z,46.81
2023-09-29T07:41:06.017Z,46.73
2023-09-29T07:43:32.666Z,46.87
2023-09-29T07:45:59.355Z,45.09
2023-09-29T07:48:27.012Z,44.80
2023-09-29T07:50:53.907Z,43.25
2023-09-29T07:53:20.653Z,44.41
2023-09-29T07:55:47.313Z,44.71
2023-09-29T07:58:13.981Z,44.22
2023-09-29T08:00:40.689Z,44.09
2023-09-29T08:03:07.537Z,43.94
2023-09-29T08:05:34.366Z,43.67
2023-09-29T08:08:01.119Z,43.98
2023-09-29T08:10:27.778Z,43.98
2023-09-29T08:12:55.611Z,42.84
2023-09-29T08:15:23.222Z,42.79
2023-09-29T08:17:50.394Z,42.93
2023-09-29T08:20:18.512Z,41.98
2023-09-29T08:22:47.946Z,41.61
2023-09-29T08:25:15.798Z,41.14
2023-09-29T08:27:43.567Z,41.99
2023-09-29T08:30:11.758Z,40.94
2023-09-29T08:32:40.080Z,40.18
2023-09-29T08:35:07.388Z,40.37
2023-09-29T08:37:34.320Z,40.16
2023-09-29T08:40:01.053Z,39.63
2023-09-29T08:42:39.374Z,38.57
2023-09-29T08:45:11.500Z,38.93
2023-09-29T08:47:39.686Z,39.07
2023-09-29T08:50:10.823Z,39.14
2023-09-29T08:52:38.108Z,39.36
2023-09-29T08:55:05.157Z,38.69
2023-09-29T08:57:32.424Z,39.08
2023-09-29T09:00:01.592Z,39.58
2023-09-29T09:02:28.751Z,39.61
2023-09-29T09:04:55.508Z,39.74
2023-09-29T09:07:22.748Z,39.57
2023-09-29T09:09:55.066Z,37.97
2023-09-29T09:12:35.572Z,38.39
2023-09-29T09:15:08.703Z,37.76
2023-09-29T09:17:37.830Z,36.58
2023-09-29T09:20:05.254Z,37.49
2023-09-29T09:22:46.336Z,37.37
2023-09-29T09:25:16.276Z,36.95
2023-09-29T09:27:44.914Z,37.29
2023-09-29T09:30:25.949Z,38.11
2023-09-29T09:32:52.978Z,37.88
2023-09-29T09:35:30.517Z,37.82
2023-09-29T09:37:58.567Z,34.64
2023-09-29T09:40:26.386Z,34.09
2023-09-29T09:42:54.859Z,33.74
2023-09-29T09:45:30.609Z,35.23
2023-09-29T09:48:01.233Z,35.58
2023-09-29T09:50:32.086Z,35.02
2023-09-29T09:53:01.222Z,34.16
2023-09-29T09:56:00.940Z,34.28
2023-09-29T09:58:28.805Z,35.40
2023-09-29T10:00:57.039Z,34.96
2023-09-29T10:03:26.149Z,34.39
2023-09-29T10:05:54.824Z,35.74
2023-09-29T10:08:33.096Z,35.08
2023-09-29T10:11:13.459Z,34.70
2023-09-29T10:13:46.422Z,34.73
2023-09-29T10:16:24.390Z,35.64
2023-09-29T10:19:00.658Z,35.48
2023-09-29T10:21:40.942Z,35.97
2023-09-29T10:24:08.222Z,35.48
2023-09-29T10:26:50.537Z,35.21
2023-09-29T10:29:30.290Z,34.34
2023-09-29T10:32:15.177Z,33.50
2023-09-29T10:34:42.371Z,33.41
2023-09-29T10:37:12.464Z,32.25
2023-09-29T10:39:40.556Z,30.51
2023-09-29T10:42:15.071Z,31.97
2023-09-29T10:44:54.310Z,29.79
2023-09-29T10:47:50.579Z,29.97
2023-09-29T10:50:17.423Z,28.84
2023-09-29T10:52:44.250Z,29.17
2023-09-29T10:55:13.975Z,30.65
2023-09-29T10:57:43.417Z,29.89
2023-09-29T11:00:10.958Z,30.71
2023-09-29T11:02:38.569Z,30.43
2023-09-29T11:05:11.353Z,28.96
2023-09-29T11:07:52.428Z,29.10
2023-09-29T11:10:20.191Z,30.24
2023-09-29T11:12:50.095Z,29.58
2023-09-29T11:15:17.955Z,30.34
2023-09-29T11:17:46.568Z,30.26
2023-09-29T11:20:23.058Z,29.08
2023-09-29T11:23:02.404Z,28.77
2023-09-29T11:25:29.127Z,28.62
2023-09-29T11:27:57.216Z,28.60
2023-09-29T11:30:26.186Z,29.08
2023-09-29T11:32:54.153Z,29.35
2023-09-29T11:35:22.672Z,28.48
2023-09-29T11:37:49.400Z,28.64
2023-09-29T11:40:17.777Z,27.87
2023-09-29T11:42:46.547Z,27.42
2023-09-29T11:45:13.654Z,28.65
2023-09-29T11:47:41.888Z,28.09
2023-09-29T11:50:10.197Z,27.55
2023-09-29T11:52:40.769Z,27.86
2023-09-29T11:55:10.169Z,28.41
2023-09-29T11:57:38.535Z,28.48
2023-09-29T12:00:10.275Z,29.26
2023-09-29T12:02:37.966Z,29.61
2023-09-29T12:05:05.650Z,27.92
2023-09-29T12:07:33.286Z,28.44
2023-09-29T12:10:00.456Z,28.92
2023-09-29T12:12:28.293Z,29.61
2023-09-29T12:14:55.106Z,29.96
2023-09-29T12:17:21.964Z,29.68
2023-09-29T12:19:48.667Z,30.15
2023-09-29T12:22:15.419Z,30.48
2023-09-29T12:24:42.117Z,30.27
2023-09-29T12:27:11.753Z,30.59
2023-09-29T12:29:38.463Z,30.37
2023-09-29T12:32:05.183Z,31.08
2023-09-29T12:34:33.860Z,30.31
2023-09-29T12:37:01.063Z,30.29
2023-09-29T12:39:28.006Z,30.98
2023-09-29T12:41:54.967Z,30.61
2023-09-29T12:44:21.814Z,31.23
2023-09-29T12:46:48.474Z,30.67
2023-09-29T12:49:15.211Z,32.64
2023-09-29T12:51:53.609Z,30.54
2023-09-29T12:54:26.635Z,30.19
2023-09-29T12:57:01.338Z,30.72
2023-09-29T12:59:30.919Z,31.15
2023-09-29T13:01:57.706Z,30.67
2023-09-29T13:04:27.715Z,32.22
2023-09-29T13:06:54.462Z,31.80
2023-09-29T13:09:22.178Z,33.21
2023-09-29T13:11:49.916Z,31.84
2023-09-29T13:14:16.604Z,32.34
2023-09-29T13:16:43.755Z,32.25
2023-09-29T13:19:10.804Z,32.84
2023-09-29T13:21:37.537Z,32.57
2023-09-29T13:24:04.853Z,31.41
2023-09-29T13:26:31.670Z,31.51
2023-09-29T13:28:58.435Z,31.22
2023-09-29T13:31:25.097Z,31.72
2023-09-29T13:33:54.831Z,31.86
2023-09-29T13:36:21.784Z,30.35
2023-09-29T13:38:49.420Z,28.28
2023-09-29T13:41:16.142Z,28.21
2023-09-29T13:43:44.406Z,29.00
2023-09-29T13:46:11.148Z,30.17
2023-09-29T13:48:38.776Z,29.85
2023-09-29T13:51:07.501Z,30.11
2023-09-29T13:53:35.667Z,31.21
2023-09-29T13:56:07.159Z,32.04
2023-09-29T13:58:34.327Z,33.80
2023-09-29T14:01:01.242Z,33.33
2023-09-29T14:03:28.029Z,33.55
2023-09-29T14:05:55.298Z,33.27
2023-09-29T14:08:22.249Z,33.30
2023-09-29T14:10:49.131Z,33.57
2023-09-29T14:13:17.331Z,33.48
2023-09-29T14:15:44.024Z,32.30
2023-09-29T14:18:10.810Z,31.60
2023-09-29T14:20:38.283Z,32.16
2023-09-29T14:23:05.752Z,33.22
2023-09-29T14:25:32.481Z,32.58
2023-09-29T14:27:59.228Z,33.11
2023-09-29T14:30:26.220Z,33.41
2023-09-29T14:32:54.989Z,34.16
2023-09-29T14:35:22.693Z,34.61
2023-09-29T14:37:55.574Z,34.74
2023-09-29T14:40:22.682Z,36.26
2023-09-29T14:42:49.865Z,36.89
2023-09-29T14:45:16.526Z,38.23
2023-09-29T14:47:43.258Z,38.82
2023-09-29T14:50:10.388Z,39.16
2023-09-29T14:52:37.129Z,38.18
2023-09-29T14:55:07.171Z,37.36
2023-09-29T14:57:34.247Z,37.37
2023-09-29T15:00:01.946Z,37.51
2023-09-29T15:02:28.789Z,36.68
2023-09-29T15:04:57.334Z,37.71
2023-09-29T15:07:26.145Z,37.17
2023-09-29T15:09:53.221Z,37.16
2023-09-29T15:12:21.915Z,37.54
2023-09-29T15:14:50.486Z,38.14
2023-09-29T15:17:17.181Z,36.71
2023-09-29T15:19:44.350Z,37.06
2023-09-29T15:22:11.374Z,37.22
2023-09-29T15:24:41.131Z,37.29
2023-09-29T15:27:07.862Z,38.52
2023-09-29T15:29:34.561Z,40.02
2023-09-29T15:32:01.220Z,40.83
2023-09-29T15:34:28.018Z,41.65
2023-09-29T15:36:54.746Z,42.06
2023-09-29T15:39:21.514Z,42.96
2023-09-29T15:41:48.789Z,44.29
2023-09-29T15:44:16.886Z,45.32
2023-09-29T15:46:45.828Z,44.22
2023-09-29T15:49:15.603Z,44.51
2023-09-29T15:51:42.237Z,45.55
2023-09-29T15:54:08.955Z,46.60
2023-09-29T15:56:35.704Z,45.85
2023-09-29T15:59:02.984Z,44.56
2023-09-29T16:01:29.754Z,45.54
2023-09-29T16:03:56.748Z,46.19
2023-09-29T16:06:23.857Z,47.61
2023-09-29T16:08:50.575Z,47.98
2023-09-29T16:11:18.081Z,47.68
2023-09-29T16:13:45.322Z,46.20
2023-09-29T16:16:12.065Z,46.61
2023-09-29T16:18:38.853Z,48.58
2023-09-29T16:21:08.115Z,48.97
2023-09-29T16:23:34.837Z,49.02
2023-09-29T16:26:01.529Z,48.94
2023-09-29T16:28:28.186Z,49.31
2023-09-29T16:30:56.278Z,49.49
2023-09-29T16:33:23.109Z,50.20
2023-09-29T16:35:49.840Z,50.35
2023-09-29T16:38:16.581Z,50.93
2023-09-29T16:40:44.091Z,52.35
2023-09-29T16:43:12.047Z,53.14
2023-09-29T16:45:38.730Z,52.90
2023-09-29T16:48:05.782Z,53.60
2023-09-29T16:50:33.800Z,54.34
2023-09-29T16:53:00.544Z,54.48
2023-09-29T16:55:27.230Z,55.34
2023-09-29T16:57:53.910Z,56.20
2023-09-29T17:00:20.762Z,56.20
2023-09-29T17:02:47.543Z,56.71
2023-09-29T17:05:15.622Z,57.18
2023-09-29T17:07:42.280Z,57.62
2023-09-29T17:10:09.464Z,57.83
2023-09-29T17:12:36.211Z,58.37
2023-09-29T17:15:03.554Z,59.08
2023-09-29T17:17:30.533Z,59.85
2023-09-29T17:19:57.291Z,60.31
2023-09-29T17:22:24.918Z,60.61
2023-09-29T17:24:51.756Z,61.25
2023-09-29T17:27:19.278Z,61.85
2023-09-29T17:29:46.055Z,62.00
2023-09-29T17:32:12.883Z,62.43
2023-09-29T17:34:39.586Z,63.03
2023-09-29T17:37:06.295Z,63.11
2023-09-29T17:39:33.167Z,63.11
2023-09-29T17:42:02.331Z,63.67
2023-09-29T17:44:29.122Z,64.16
2023-09-29T17:46:55.811Z,63.97
2023-09-29T17:49:22.545Z,64.45
2023-09-29T17:51:49.267Z,64.52
2023-09-29T17:54:16.004Z,64.37
2023-09-29T17:56:42.729Z,64.57
2023-09-29T17:59:09.394Z,64.81
2023-09-29T18:01:36.076Z,64.81
2023-09-29T18:04:03.782Z,64.96
2023-09-29T18:06:32.459Z,65.31
2023-09-29T18:09:00.003Z,65.44
2023-09-29T18:11:28.007Z,65.55
2023-09-29T18:13:56.529Z,65.42
2023-09-29T18:16:23.523Z,65.22
2023-09-29T18:18:50.325Z,66.21
2023-09-29T18:21:17.315Z,66.96
2023-09-29T18:23:44.049Z,67.27
2023-09-29T18:26:10.619Z,67.10
2023-09-29T18:28:37.352Z,66.77
2023-09-29T18:31:08.358Z,67.31
2023-09-29T18:33:35.440Z,67.37
2023-09-29T18:36:04.225Z,67.69
2023-09-29T18:38:31.301Z,67.79
2023-09-29T18:40:58.147Z,68.07
2023-09-29T18:43:24.805Z,67.99
2023-09-29T18:45:59.010Z,68.21
2023-09-29T18:48:25.728Z,67.69
2023-09-29T18:50:53.294Z,67.67
2023-09-29T18:53:19.987Z,67.25
2023-09-29T18:55:46.981Z,67.58
2023-09-29T18:58:13.650Z,67.71
2023-09-29T19:00:40.870Z,67.70
2023-09-29T19:03:07.759Z,67.67
2023-09-29T19:05:36.256Z,67.50
2023-09-29T19:08:02.966Z,67.97
2023-09-29T19:10:29.524Z,67.81
2023-09-29T19:12:56.158Z,67.98
2023-09-29T19:15:22.700Z,68.51
2023-09-29T19:17:49.686Z,68.21
2023-09-29T19:20:16.786Z,68.69
2023-09-29T19:22:43.621Z,68.67
2023-09-29T19:25:10.461Z,68.75
2023-09-29T19:27:37.219Z,68.94
2023-09-29T19:30:04.584Z,69.13
2023-09-29T19:32:31.659Z,69.05
2023-09-29T19:34:58.337Z,69.44
2023-09-29T19:37:25.563Z,69.28
2023-09-29T19:39:52.270Z,69.31
2023-09-29T19:42:21.208Z,69.46
2023-09-29T19:44:49.399Z,69.45
2023-09-29T19:47:16.173Z,69.59
2023-09-29T19:49:42.813Z,69.98
2023-09-29T19:52:09.560Z,69.75
2023-09-29T19:54:36.394Z,69.63
2023-09-29T19:57:03.175Z,69.77
2023-09-29T19:59:29.846Z,69.73
2023-09-29T20:01:56.442Z,69.29
2023-09-29T20:04:23.261Z,69.31
2023-09-29T20:06:49.999Z,69.64
2023-09-29T20:09:17.571Z,68.97
2023-09-29T20:11:44.930Z,68.78
2023-09-29T20:14:11.677Z,69.37
2023-09-29T20:16:38.421Z,69.74
2023-09-29T20:19:05.247Z,69.69
2023-09-29T20:21:32.467Z,70.43
2023-09-29T20:24:01.988Z,69.97
2023-09-29T20:26:34.808Z,70.39
2023-09-29T20:29:01.468Z,70.61
2023-09-29T20:31:28.047Z,70.68
2023-09-29T20:33:57.214Z,70.47
2023-09-29T20:36:24.143Z,70.05
2023-09-29T20:38:50.803Z,70.15
2023-09-29T20:41:17.430Z,70.89
2023-09-29T20:43:44.251Z,70.88
2023-09-29T20:46:11.316Z,70.92
2023-09-29T20:48:38.366Z,70.84
2023-09-29T20:51:12.682Z,71.21
2023-09-29T20:53:39.939Z,71.09
2023-09-29T20:56:10.737Z,70.91
2023-09-29T20:58:37.458Z,70.08
2023-09-29T21:01:04.268Z,70.21
2023-09-29T21:03:31.130Z,69.53
2023-09-29T21:05:57.955Z,69.66
2023-09-29T21:08:24.691Z,69.74
2023-09-29T21:10:55.116Z,69.14
2023-09-29T21:13:21.873Z,68.63
2023-09-29T21:15:48.644Z,68.00
2023-09-29T21:18:15.507Z,66.64
2023-09-29T21:20:42.197Z,64.52
2023-09-29T21:23:08.773Z,65.24
2023-09-29T21:25:35.623Z,66.08
2023-09-29T21:28:05.509Z,68.43
2023-09-29T21:30:32.343Z,68.92
2023-09-29T21:32:59.188Z,68.14
2023-09-29T21:35:25.953Z,67.26
2023-09-29T21:37:52.498Z,67.40
2023-09-29T21:40:20.538Z,67.80
2023-09-29T21:42:47.296Z,67.90
2023-09-29T21:45:14.441Z,68.16
2023-09-29T21:47:41.273Z,68.73
2023-09-29T21:50:08.369Z,68.75
2023-09-29T21:52:35.460Z,67.32
2023-09-29T21:55:02.536Z,67.00
2023-09-29T21:57:29.392Z,67.74
2023-09-29T21:59:57.402Z,68.76
2023-09-29T22:02:24.455Z,67.90
2023-09-29T22:04:51.148Z,67.18
2023-09-29T22:07:17.896Z,67.43
2023-09-29T22:09:44.579Z,68.36
2023-09-29T22:12:11.543Z,68.53
2023-09-29T22:14:38.917Z,67.49
2023-09-29T22:17:05.599Z,68.14
2023-09-29T22:19:32.109Z,67.60
2023-09-29T22:21:58.790Z,68.06
2023-09-29T22:24:25.314Z,67.60
2023-09-29T22:26:52.353Z,67.50
2023-09-29T22:29:19.049Z,68.21
2023-09-29T22:31:45.685Z,67.95
2023-09-29T22:34:12.488Z,66.99
2023-09-29T22:36:39.262Z,66.84
2023-09-29T22:39:08.069Z,66.40
2023-09-29T22:41:35.026Z,66.15
2023-09-29T22:44:02.477Z,66.10
2023-09-29T22:46:29.260Z,66.42
2023-09-29T22:48:56.306Z,66.84
2023-09-29T22:51:23.134Z,66.67
2023-09-29T22:53:49.823Z,66.37
2023-09-29T22:56:16.492Z,66.37
2023-09-29T22:58:43.433Z,66.23
2023-09-29T23:01:10.430Z,65.80
2023-09-29T23:03:37.294Z,65.95
2023-09-29T23:06:04.393Z,65.85
2023-09-29T23:08:32.754Z,65.84
2023-09-29T23:10:59.839Z,65.97
2023-09-29T23:13:27.049Z,65.99
2023-09-29T23:15:54.103Z,67.12
2023-09-29T23:18:21.419Z,68.46
2023-09-29T23:20:48.314Z,69.35
2023-09-29T23:23:15.155Z,69.54
2023-09-29T23:25:42.993Z,69.58
2023-09-29T23:28:09.826Z,68.91
2023-09-29T23:30:37.059Z,68.56
2023-09-29T23:33:05.157Z,68.71
2023-09-29T23:35:32.257Z,68.42
2023-09-29T23:37:59.346Z,68.19
2023-09-29T23:40:26.094Z,68.38
2023-09-29T23:42:52.777Z,68.91
2023-09-29T23:45:19.323Z,72.64
2023-09-29T23:47:48.275Z,74.15
2023-09-29T23:50:15.089Z,75.56
2023-09-29T23:52:41.780Z,76.94
2023-09-29T23:55:09.939Z,77.50
2023-09-29T23:57:37.946Z,78.32
